Current | Forecast
Updated: 7:00 AM JST on July 24, 2017
Observed at Kushiro Airport, Japan
Temperature 66°F
Humidity 100%
Dew Point 66°F
Wind South at 8 mph
Pressure 29.56 in (Rising)
Conditions Mostly Cloudy
Visibility 2.8 miles
UV 1 out of 16
Clouds (FEW) : 100 ft
Scattered Clouds (SCT) : 200 ft
Mostly Cloudy (BKN) : 300 ft
Yesterday's Maximum 70°F
Yesterday's Minimum 64°F approx.
Yesterday's Cooling Degree Days 2 approx.
Sunrise4:07 AM JST
Sunset6:56 PM JST
Moon Rise4:47 AM JST
Moon Set7:27 PM JST
Moon PhaseMoon Phase
New Moon
Raw METARMETAR RJCK 232200Z 19007KT 4500 BR FEW001 SCT002 BKN003 19/19 Q1001


Monday
. High: 71° F.
Tuesday
. High: 71° F.
Wednesday
. High: 66° F.
Thursday
. High: 69° F.
Friday
. High: 64° F.
Saturday
. High: 62° F.
Sunday
. High: 64° F.
Monday
. High: 57° F.

Units: English | Metric

Find the Weather for any City, State or Zipcode, or Country:

U.S. State List | Severe Weather | Tropical Storms | Ski Conditions
United States | Canada | Central America | South America | Asia | Europe | Australia | Africa | Islands

Weather Underground

© Copyright 2017
The Weather Company, LLC